sensor_id;sensor_type;location;lat;lon;timestamp;temperature;humidity
26599;DHT22;14240;51.064;16.612;2024-01-30T00:01:42;5.40;99.90
26599;DHT22;14240;51.064;16.612;2024-01-30T00:04:07;5.40;99.90
26599;DHT22;14240;51.064;16.612;2024-01-30T00:06:33;5.40;99.90
26599;DHT22;14240;51.064;16.612;2024-01-30T00:08:59;5.30;99.90
26599;DHT22;14240;51.064;16.612;2024-01-30T00:11:25;5.30;99.90
26599;DHT22;14240;51.064;16.612;2024-01-30T00:13:54;5.30;99.90
26599;DHT22;14240;51.064;16.612;2024-01-30T00:16:23;5.30;99.90
26599;DHT22;14240;51.064;16.612;2024-01-30T00:18:50;5.30;99.90
26599;DHT22;14240;51.064;16.612;2024-01-30T00:21:16;5.30;99.90
26599;DHT22;14240;51.064;16.612;2024-01-30T00:23:42;5.30;99.90
26599;DHT22;14240;51.064;16.612;2024-01-30T00:26:07;5.30;99.90
26599;DHT22;14240;51.064;16.612;2024-01-30T00:28:33;5.30;99.90
26599;DHT22;14240;51.064;16.612;2024-01-30T00:30:59;5.30;99.90
26599;DHT22;14240;51.064;16.612;2024-01-30T00:33:24;5.30;99.90
26599;DHT22;14240;51.064;16.612;2024-01-30T00:35:50;5.30;99.90
26599;DHT22;14240;51.064;16.612;2024-01-30T00:38:16;5.30;99.90
26599;DHT22;14240;51.064;16.612;2024-01-30T00:40:41;5.30;99.90
26599;DHT22;14240;51.064;16.612;2024-01-30T00:43:07;5.40;99.90
26599;DHT22;14240;51.064;16.612;2024-01-30T00:45:33;5.30;99.90
26599;DHT22;14240;51.064;16.612;2024-01-30T00:47:59;5.40;99.90
26599;DHT22;14240;51.064;16.612;2024-01-30T00:50:24;5.40;99.90
26599;DHT22;14240;51.064;16.612;2024-01-30T00:52:50;5.40;99.90
26599;DHT22;14240;51.064;16.612;2024-01-30T00:55:16;5.40;99.90
26599;DHT22;14240;51.064;16.612;2024-01-30T00:57:41;5.40;99.90
26599;DHT22;14240;51.064;16.612;2024-01-30T01:00:08;5.30;99.90
26599;DHT22;14240;51.064;16.612;2024-01-30T01:02:37;5.30;99.90
26599;DHT22;14240;51.064;16.612;2024-01-30T01:05:04;5.30;99.90
26599;DHT22;14240;51.064;16.612;2024-01-30T01:07:30;5.30;99.90
26599;DHT22;14240;51.064;16.612;2024-01-30T01:09:56;5.30;99.90
26599;DHT22;14240;51.064;16.612;2024-01-30T01:12:22;5.30;99.90
26599;DHT22;14240;51.064;16.612;2024-01-30T01:14:48;5.30;99.90
26599;DHT22;14240;51.064;16.612;2024-01-30T01:17:13;5.30;99.90
26599;DHT22;14240;51.064;16.612;2024-01-30T01:19:39;5.30;99.90
26599;DHT22;14240;51.064;16.612;2024-01-30T01:22:05;5.30;99.90
26599;DHT22;14240;51.064;16.612;2024-01-30T01:24:33;5.30;99.90
26599;DHT22;14240;51.064;16.612;2024-01-30T01:26:59;5.20;99.90
26599;DHT22;14240;51.064;16.612;2024-01-30T01:29:25;5.20;99.90
26599;DHT22;14240;51.064;16.612;2024-01-30T01:31:55;5.20;99.90
26599;DHT22;14240;51.064;16.612;2024-01-30T01:34:21;5.20;99.90
26599;DHT22;14240;51.064;16.612;2024-01-30T01:36:47;5.20;99.90
26599;DHT22;14240;51.064;16.612;2024-01-30T01:39:13;5.20;99.90
26599;DHT22;14240;51.064;16.612;2024-01-30T01:41:39;5.10;99.90
26599;DHT22;14240;51.064;16.612;2024-01-30T01:44:04;5.10;99.90
26599;DHT22;14240;51.064;16.612;2024-01-30T01:46:33;5.10;99.90
26599;DHT22;14240;51.064;16.612;2024-01-30T01:49:00;5.10;99.90
26599;DHT22;14240;51.064;16.612;2024-01-30T01:51:28;5.10;99.90
26599;DHT22;14240;51.064;16.612;2024-01-30T01:53:55;5.10;99.90
26599;DHT22;14240;51.064;16.612;2024-01-30T01:56:23;5.10;99.90
26599;DHT22;14240;51.064;16.612;2024-01-30T01:58:50;5.10;99.90
26599;DHT22;14240;51.064;16.612;2024-01-30T02:01:19;5.10;99.90
26599;DHT22;14240;51.064;16.612;2024-01-30T02:03:46;5.10;99.90
26599;DHT22;14240;51.064;16.612;2024-01-30T02:06:15;5.00;99.90
26599;DHT22;14240;51.064;16.612;2024-01-30T02:08:42;5.10;99.90
26599;DHT22;14240;51.064;16.612;2024-01-30T02:11:08;5.00;99.90
26599;DHT22;14240;51.064;16.612;2024-01-30T02:13:35;5.00;99.90
26599;DHT22;14240;51.064;16.612;2024-01-30T02:16:01;5.00;99.90
26599;DHT22;14240;51.064;16.612;2024-01-30T02:18:27;5.00;99.90
26599;DHT22;14240;51.064;16.612;2024-01-30T02:20:54;5.00;99.90
26599;DHT22;14240;51.064;16.612;2024-01-30T02:23:25;5.00;99.90
26599;DHT22;14240;51.064;16.612;2024-01-30T02:25:51;5.00;99.90
26599;DHT22;14240;51.064;16.612;2024-01-30T02:28:19;5.00;99.90
26599;DHT22;14240;51.064;16.612;2024-01-30T02:30:46;5.00;99.90
26599;DHT22;14240;51.064;16.612;2024-01-30T02:33:12;5.00;99.90
26599;DHT22;14240;51.064;16.612;2024-01-30T02:35:38;5.00;99.90
26599;DHT22;14240;51.064;16.612;2024-01-30T02:38:04;5.00;99.90
26599;DHT22;14240;51.064;16.612;2024-01-30T02:40:30;5.00;99.90
26599;DHT22;14240;51.064;16.612;2024-01-30T02:42:57;5.00;99.90
26599;DHT22;14240;51.064;16.612;2024-01-30T02:45:23;5.00;99.90
26599;DHT22;14240;51.064;16.612;2024-01-30T02:47:48;5.00;99.90
26599;DHT22;14240;51.064;16.612;2024-01-30T02:50:14;5.00;99.90
26599;DHT22;14240;51.064;16.612;2024-01-30T02:52:40;5.00;99.90
26599;DHT22;14240;51.064;16.612;2024-01-30T02:55:06;5.00;99.90
26599;DHT22;14240;51.064;16.612;2024-01-30T02:57:32;5.00;99.90
26599;DHT22;14240;51.064;16.612;2024-01-30T02:59:58;5.10;99.90
26599;DHT22;14240;51.064;16.612;2024-01-30T03:02:23;5.10;99.90
26599;DHT22;14240;51.064;16.612;2024-01-30T03:04:49;5.10;99.90
26599;DHT22;14240;51.064;16.612;2024-01-30T03:07:15;5.10;99.90
26599;DHT22;14240;51.064;16.612;2024-01-30T03:09:44;5.10;99.90
26599;DHT22;14240;51.064;16.612;2024-01-30T03:12:10;5.10;99.90
26599;DHT22;14240;51.064;16.612;2024-01-30T03:14:36;5.10;99.90
26599;DHT22;14240;51.064;16.612;2024-01-30T03:17:02;5.10;99.90
26599;DHT22;14240;51.064;16.612;2024-01-30T03:19:28;5.30;99.90
26599;DHT22;14240;51.064;16.612;2024-01-30T03:21:54;5.10;99.90
26599;DHT22;14240;51.064;16.612;2024-01-30T03:24:20;5.10;99.90
26599;DHT22;14240;51.064;16.612;2024-01-30T03:26:46;5.00;99.90
26599;DHT22;14240;51.064;16.612;2024-01-30T03:29:11;5.00;99.90
26599;DHT22;14240;51.064;16.612;2024-01-30T03:31:37;4.90;99.90
26599;DHT22;14240;51.064;16.612;2024-01-30T03:34:03;5.10;99.90
26599;DHT22;14240;51.064;16.612;2024-01-30T03:36:28;4.80;99.90
26599;DHT22;14240;51.064;16.612;2024-01-30T03:38:54;4.80;99.90
26599;DHT22;14240;51.064;16.612;2024-01-30T03:41:20;4.80;99.90
26599;DHT22;14240;51.064;16.612;2024-01-30T03:43:47;4.80;99.90
26599;DHT22;14240;51.064;16.612;2024-01-30T03:46:13;4.80;99.90
26599;DHT22;14240;51.064;16.612;2024-01-30T03:48:39;4.80;99.90
26599;DHT22;14240;51.064;16.612;2024-01-30T03:51:05;4.80;99.90
26599;DHT22;14240;51.064;16.612;2024-01-30T03:53:31;4.80;99.90
26599;DHT22;14240;51.064;16.612;2024-01-30T03:55:57;4.80;99.90
26599;DHT22;14240;51.064;16.612;2024-01-30T03:58:22;4.90;99.90
26599;DHT22;14240;51.064;16.612;2024-01-30T04:00:48;4.80;99.90
26599;DHT22;14240;51.064;16.612;2024-01-30T04:03:17;4.80;99.90
26599;DHT22;14240;51.064;16.612;2024-01-30T04:05:42;4.80;99.90
26599;DHT22;14240;51.064;16.612;2024-01-30T04:08:08;4.80;99.90
26599;DHT22;14240;51.064;16.612;2024-01-30T04:10:34;4.80;99.90
26599;DHT22;14240;51.064;16.612;2024-01-30T04:13:00;4.80;99.90
26599;DHT22;14240;51.064;16.612;2024-01-30T04:15:26;4.80;99.90
26599;DHT22;14240;51.064;16.612;2024-01-30T04:17:52;4.80;99.90
26599;DHT22;14240;51.064;16.612;2024-01-30T04:20:18;4.80;99.90
26599;DHT22;14240;51.064;16.612;2024-01-30T04:22:47;4.80;99.90
26599;DHT22;14240;51.064;16.612;2024-01-30T04:25:15;4.80;99.90
26599;DHT22;14240;51.064;16.612;2024-01-30T04:27:41;4.80;99.90
26599;DHT22;14240;51.064;16.612;2024-01-30T04:30:07;4.70;99.90
26599;DHT22;14240;51.064;16.612;2024-01-30T04:32:33;4.80;99.90
26599;DHT22;14240;51.064;16.612;2024-01-30T04:34:58;4.80;99.90
26599;DHT22;14240;51.064;16.612;2024-01-30T04:37:24;4.80;99.90
26599;DHT22;14240;51.064;16.612;2024-01-30T04:39:50;4.80;99.90
26599;DHT22;14240;51.064;16.612;2024-01-30T04:42:17;4.80;99.90
26599;DHT22;14240;51.064;16.612;2024-01-30T04:44:43;4.80;99.90
26599;DHT22;14240;51.064;16.612;2024-01-30T04:47:09;4.80;99.90
26599;DHT22;14240;51.064;16.612;2024-01-30T04:49:36;4.80;99.90
26599;DHT22;14240;51.064;16.612;2024-01-30T04:52:02;4.80;99.90
26599;DHT22;14240;51.064;16.612;2024-01-30T04:54:28;4.80;99.90
26599;DHT22;14240;51.064;16.612;2024-01-30T04:56:53;4.70;99.90
26599;DHT22;14240;51.064;16.612;2024-01-30T04:59:19;4.80;99.90
26599;DHT22;14240;51.064;16.612;2024-01-30T05:01:45;4.70;99.90
26599;DHT22;14240;51.064;16.612;2024-01-30T05:04:10;4.70;99.90
26599;DHT22;14240;51.064;16.612;2024-01-30T05:06:37;4.70;99.90
26599;DHT22;14240;51.064;16.612;2024-01-30T05:09:03;4.60;99.90
26599;DHT22;14240;51.064;16.612;2024-01-30T05:11:30;4.60;99.90
26599;DHT22;14240;51.064;16.612;2024-01-30T05:13:55;4.50;99.90
26599;DHT22;14240;51.064;16.612;2024-01-30T05:16:21;4.40;99.90
26599;DHT22;14240;51.064;16.612;2024-01-30T05:18:47;4.40;99.90
26599;DHT22;14240;51.064;16.612;2024-01-30T05:21:13;4.40;99.90
26599;DHT22;14240;51.064;16.612;2024-01-30T05:23:39;4.40;99.90
26599;DHT22;14240;51.064;16.612;2024-01-30T05:26:05;4.40;99.90
26599;DHT22;14240;51.064;16.612;2024-01-30T05:28:32;4.30;99.90
26599;DHT22;14240;51.064;16.612;2024-01-30T05:30:57;4.30;99.90
26599;DHT22;14240;51.064;16.612;2024-01-30T05:33:23;4.20;99.90
26599;DHT22;14240;51.064;16.612;2024-01-30T05:35:48;4.20;99.90
26599;DHT22;14240;51.064;16.612;2024-01-30T05:38:16;4.20;99.90
26599;DHT22;14240;51.064;16.612;2024-01-30T05:40:41;4.10;99.90
26599;DHT22;14240;51.064;16.612;2024-01-30T05:43:07;4.10;99.90
26599;DHT22;14240;51.064;16.612;2024-01-30T05:45:33;4.10;99.90
26599;DHT22;14240;51.064;16.612;2024-01-30T05:48:03;4.00;99.90
26599;DHT22;14240;51.064;16.612;2024-01-30T05:50:28;4.10;99.90
26599;DHT22;14240;51.064;16.612;2024-01-30T05:52:54;4.10;99.90
26599;DHT22;14240;51.064;16.612;2024-01-30T05:55:20;4.10;99.90
26599;DHT22;14240;51.064;16.612;2024-01-30T05:57:45;4.10;99.90
26599;DHT22;14240;51.064;16.612;2024-01-30T06:00:12;4.10;99.90
26599;DHT22;14240;51.064;16.612;2024-01-30T06:02:37;4.10;99.90
26599;DHT22;14240;51.064;16.612;2024-01-30T06:05:03;4.10;99.90
26599;DHT22;14240;51.064;16.612;2024-01-30T06:07:29;4.10;99.90
26599;DHT22;14240;51.064;16.612;2024-01-30T06:09:55;4.20;99.90
26599;DHT22;14240;51.064;16.612;2024-01-30T06:12:20;4.20;99.90
26599;DHT22;14240;51.064;16.612;2024-01-30T06:14:46;4.20;99.90
26599;DHT22;14240;51.064;16.612;2024-01-30T06:17:12;4.20;99.90
26599;DHT22;14240;51.064;16.612;2024-01-30T06:19:38;4.30;99.90
26599;DHT22;14240;51.064;16.612;2024-01-30T06:22:07;4.30;99.90
26599;DHT22;14240;51.064;16.612;2024-01-30T06:24:32;4.30;99.90
26599;DHT22;14240;51.064;16.612;2024-01-30T06:26:59;4.30;99.90
26599;DHT22;14240;51.064;16.612;2024-01-30T06:29:26;4.30;99.90
26599;DHT22;14240;51.064;16.612;2024-01-30T06:31:52;4.30;99.90
26599;DHT22;14240;51.064;16.612;2024-01-30T06:34:18;4.40;99.90
26599;DHT22;14240;51.064;16.612;2024-01-30T06:36:43;4.40;99.90
26599;DHT22;14240;51.064;16.612;2024-01-30T06:39:09;4.40;99.90
26599;DHT22;14240;51.064;16.612;2024-01-30T06:41:35;4.50;99.90
26599;DHT22;14240;51.064;16.612;2024-01-30T06:44:02;4.50;99.90
26599;DHT22;14240;51.064;16.612;2024-01-30T06:46:29;4.50;99.90
26599;DHT22;14240;51.064;16.612;2024-01-30T06:48:55;4.50;99.90
26599;DHT22;14240;51.064;16.612;2024-01-30T06:51:20;4.60;99.90
26599;DHT22;14240;51.064;16.612;2024-01-30T06:53:46;4.60;99.90
26599;DHT22;14240;51.064;16.612;2024-01-30T06:56:12;4.60;99.90
26599;DHT22;14240;51.064;16.612;2024-01-30T06:58:37;4.60;99.90
26599;DHT22;14240;51.064;16.612;2024-01-30T07:01:04;4.60;99.90
26599;DHT22;14240;51.064;16.612;2024-01-30T07:03:29;4.70;99.90
26599;DHT22;14240;51.064;16.612;2024-01-30T07:05:55;4.70;99.90
26599;DHT22;14240;51.064;16.612;2024-01-30T07:08:21;4.80;99.90
26599;DHT22;14240;51.064;16.612;2024-01-30T07:10:47;4.90;99.90
26599;DHT22;14240;51.064;16.612;2024-01-30T07:13:13;4.90;99.90
26599;DHT22;14240;51.064;16.612;2024-01-30T07:15:42;5.00;99.90
26599;DHT22;14240;51.064;16.612;2024-01-30T07:18:07;5.10;99.90
26599;DHT22;14240;51.064;16.612;2024-01-30T07:20:33;5.10;99.90
26599;DHT22;14240;51.064;16.612;2024-01-30T07:22:59;5.10;99.90
26599;DHT22;14240;51.064;16.612;2024-01-30T07:25:24;5.20;99.90
26599;DHT22;14240;51.064;16.612;2024-01-30T07:27:54;5.20;99.90
26599;DHT22;14240;51.064;16.612;2024-01-30T07:30:20;5.30;99.90
26599;DHT22;14240;51.064;16.612;2024-01-30T07:32:46;5.30;99.90
26599;DHT22;14240;51.064;16.612;2024-01-30T07:35:13;5.30;99.90
26599;DHT22;14240;51.064;16.612;2024-01-30T07:37:39;5.40;99.90
26599;DHT22;14240;51.064;16.612;2024-01-30T07:40:05;5.40;99.90
26599;DHT22;14240;51.064;16.612;2024-01-30T07:42:32;5.50;99.90
26599;DHT22;14240;51.064;16.612;2024-01-30T07:44:58;5.50;99.90
26599;DHT22;14240;51.064;16.612;2024-01-30T07:47:23;5.60;99.90
26599;DHT22;14240;51.064;16.612;2024-01-30T07:49:49;5.80;99.90
26599;DHT22;14240;51.064;16.612;2024-01-30T07:52:15;5.90;99.90
26599;DHT22;14240;51.064;16.612;2024-01-30T07:54:41;6.10;99.90
26599;DHT22;14240;51.064;16.612;2024-01-30T07:57:07;6.20;99.90
26599;DHT22;14240;51.064;16.612;2024-01-30T07:59:32;6.50;99.90
26599;DHT22;14240;51.064;16.612;2024-01-30T08:01:58;6.70;99.90
26599;DHT22;14240;51.064;16.612;2024-01-30T08:04:24;6.90;99.90
26599;DHT22;14240;51.064;16.612;2024-01-30T08:06:49;7.20;99.90
26599;DHT22;14240;51.064;16.612;2024-01-30T08:09:15;7.30;99.90
26599;DHT22;14240;51.064;16.612;2024-01-30T08:11:41;7.40;99.90
26599;DHT22;14240;51.064;16.612;2024-01-30T08:14:06;7.60;99.90
26599;DHT22;14240;51.064;16.612;2024-01-30T08:16:32;7.90;99.90
26599;DHT22;14240;51.064;16.612;2024-01-30T08:18:58;8.20;99.90
26599;DHT22;14240;51.064;16.612;2024-01-30T08:21:24;8.70;99.90
26599;DHT22;14240;51.064;16.612;2024-01-30T08:23:50;9.10;99.90
26599;DHT22;14240;51.064;16.612;2024-01-30T08:26:15;9.50;99.90
26599;DHT22;14240;51.064;16.612;2024-01-30T08:28:41;9.70;99.90
26599;DHT22;14240;51.064;16.612;2024-01-30T08:31:06;9.70;99.90
26599;DHT22;14240;51.064;16.612;2024-01-30T08:33:32;9.70;99.90
26599;DHT22;14240;51.064;16.612;2024-01-30T08:35:58;9.80;99.90
26599;DHT22;14240;51.064;16.612;2024-01-30T08:38:23;10.10;99.90
26599;DHT22;14240;51.064;16.612;2024-01-30T08:40:49;10.30;99.90
26599;DHT22;14240;51.064;16.612;2024-01-30T08:43:15;10.40;99.90
26599;DHT22;14240;51.064;16.612;2024-01-30T08:45:41;10.60;99.90
26599;DHT22;14240;51.064;16.612;2024-01-30T08:48:07;10.80;99.90
26599;DHT22;14240;51.064;16.612;2024-01-30T08:50:33;11.10;99.90
26599;DHT22;14240;51.064;16.612;2024-01-30T08:53:00;11.20;99.60
26599;DHT22;14240;51.064;16.612;2024-01-30T08:55:25;11.30;99.30
26599;DHT22;14240;51.064;16.612;2024-01-30T08:57:51;11.40;99.30
26599;DHT22;14240;51.064;16.612;2024-01-30T09:00:17;11.60;99.10
26599;DHT22;14240;51.064;16.612;2024-01-30T09:02:43;11.60;98.40
26599;DHT22;14240;51.064;16.612;2024-01-30T09:05:09;11.60;97.80
26599;DHT22;14240;51.064;16.612;2024-01-30T09:07:34;11.40;97.60
26599;DHT22;14240;51.064;16.612;2024-01-30T09:10:00;11.20;97.40
26599;DHT22;14240;51.064;16.612;2024-01-30T09:12:26;11.10;97.20
26599;DHT22;14240;51.064;16.612;2024-01-30T09:14:52;11.20;97.90
26599;DHT22;14240;51.064;16.612;2024-01-30T09:17:17;11.60;98.60
26599;DHT22;14240;51.064;16.612;2024-01-30T09:19:43;12.30;98.80
26599;DHT22;14240;51.064;16.612;2024-01-30T09:22:09;13.00;98.20
26599;DHT22;14240;51.064;16.612;2024-01-30T09:24:34;13.70;97.50
26599;DHT22;14240;51.064;16.612;2024-01-30T09:27:00;14.40;96.80
26599;DHT22;14240;51.064;16.612;2024-01-30T09:29:26;15.10;96.00
26599;DHT22;14240;51.064;16.612;2024-01-30T09:31:51;15.60;94.20
26599;DHT22;14240;51.064;16.612;2024-01-30T09:34:17;16.10;93.70
26599;DHT22;14240;51.064;16.612;2024-01-30T09:36:43;16.50;92.10
26599;DHT22;14240;51.064;16.612;2024-01-30T09:39:09;16.90;91.50
26599;DHT22;14240;51.064;16.612;2024-01-30T09:41:45;17.20;90.80
26599;DHT22;14240;51.064;16.612;2024-01-30T09:44:12;17.50;90.10
26599;DHT22;14240;51.064;16.612;2024-01-30T09:46:39;17.80;89.60
26599;DHT22;14240;51.064;16.612;2024-01-30T09:49:06;18.00;88.10
26599;DHT22;14240;51.064;16.612;2024-01-30T09:51:32;18.30;86.40
26599;DHT22;14240;51.064;16.612;2024-01-30T09:53:59;18.60;85.90
26599;DHT22;14240;51.064;16.612;2024-01-30T09:56:24;18.90;84.50
26599;DHT22;14240;51.064;16.612;2024-01-30T09:58:50;19.00;82.60
26599;DHT22;14240;51.064;16.612;2024-01-30T10:01:17;19.10;81.30
26599;DHT22;14240;51.064;16.612;2024-01-30T10:03:44;19.20;80.10
26599;DHT22;14240;51.064;16.612;2024-01-30T10:06:11;19.40;79.50
26599;DHT22;14240;51.064;16.612;2024-01-30T10:08:37;19.40;78.20
26599;DHT22;14240;51.064;16.612;2024-01-30T10:11:03;19.50;77.80
26599;DHT22;14240;51.064;16.612;2024-01-30T10:13:29;19.70;77.20
26599;DHT22;14240;51.064;16.612;2024-01-30T10:15:55;19.80;76.80
26599;DHT22;14240;51.064;16.612;2024-01-30T10:18:22;19.90;76.60
26599;DHT22;14240;51.064;16.612;2024-01-30T10:20:48;19.90;76.10
26599;DHT22;14240;51.064;16.612;2024-01-30T10:23:14;19.90;75.60
26599;DHT22;14240;51.064;16.612;2024-01-30T10:25:40;19.80;75.30
26599;DHT22;14240;51.064;16.612;2024-01-30T10:28:05;19.70;74.70
26599;DHT22;14240;51.064;16.612;2024-01-30T10:30:31;19.50;73.80
26599;DHT22;14240;51.064;16.612;2024-01-30T10:32:57;19.20;74.10
26599;DHT22;14240;51.064;16.612;2024-01-30T10:35:23;18.90;73.50
26599;DHT22;14240;51.064;16.612;2024-01-30T10:37:49;18.60;73.20
26599;DHT22;14240;51.064;16.612;2024-01-30T10:40:15;18.20;73.40
26599;DHT22;14240;51.064;16.612;2024-01-30T10:42:44;18.00;73.90
26599;DHT22;14240;51.064;16.612;2024-01-30T10:45:14;17.70;73.80
26599;DHT22;14240;51.064;16.612;2024-01-30T10:47:49;17.60;74.30
26599;DHT22;14240;51.064;16.612;2024-01-30T10:50:15;17.40;74.80
26599;DHT22;14240;51.064;16.612;2024-01-30T10:52:42;17.30;74.40
26599;DHT22;14240;51.064;16.612;2024-01-30T10:55:10;17.10;73.90
26599;DHT22;14240;51.064;16.612;2024-01-30T10:57:36;16.90;73.40
26599;DHT22;14240;51.064;16.612;2024-01-30T11:00:13;16.70;72.90
26599;DHT22;14240;51.064;16.612;2024-01-30T11:02:43;16.50;73.80
26599;DHT22;14240;51.064;16.612;2024-01-30T11:05:09;16.40;74.10
26599;DHT22;14240;51.064;16.612;2024-01-30T11:07:35;16.30;74.30
26599;DHT22;14240;51.064;16.612;2024-01-30T11:10:03;16.20;74.00
26599;DHT22;14240;51.064;16.612;2024-01-30T11:12:30;16.00;74.10
26599;DHT22;14240;51.064;16.612;2024-01-30T11:15:15;15.90;74.20
26599;DHT22;14240;51.064;16.612;2024-01-30T11:20:19;15.70;75.10
26599;DHT22;14240;51.064;16.612;2024-01-30T11:22:46;15.60;75.80
26599;DHT22;14240;51.064;16.612;2024-01-30T11:25:16;15.60;76.40
26599;DHT22;14240;51.064;16.612;2024-01-30T11:27:43;15.50;76.70
26599;DHT22;14240;51.064;16.612;2024-01-30T11:30:09;15.50;76.70
26599;DHT22;14240;51.064;16.612;2024-01-30T11:32:35;15.50;76.10
26599;DHT22;14240;51.064;16.612;2024-01-30T11:35:04;15.40;76.20
26599;DHT22;14240;51.064;16.612;2024-01-30T11:37:37;15.30;76.40
26599;DHT22;14240;51.064;16.612;2024-01-30T11:40:04;15.30;77.20
26599;DHT22;14240;51.064;16.612;2024-01-30T11:42:30;15.30;77.00
26599;DHT22;14240;51.064;16.612;2024-01-30T11:44:56;15.20;76.40
26599;DHT22;14240;51.064;16.612;2024-01-30T11:47:22;15.10;76.20
26599;DHT22;14240;51.064;16.612;2024-01-30T11:49:48;14.90;76.10
26599;DHT22;14240;51.064;16.612;2024-01-30T11:52:14;14.90;76.20
26599;DHT22;14240;51.064;16.612;2024-01-30T11:54:40;14.80;76.40
26599;DHT22;14240;51.064;16.612;2024-01-30T11:57:06;14.70;76.30
26599;DHT22;14240;51.064;16.612;2024-01-30T11:59:31;14.60;76.30
26599;DHT22;14240;51.064;16.612;2024-01-30T12:01:57;14.50;76.50
26599;DHT22;14240;51.064;16.612;2024-01-30T12:04:23;14.50;77.00
26599;DHT22;14240;51.064;16.612;2024-01-30T12:06:52;14.50;77.00
26599;DHT22;14240;51.064;16.612;2024-01-30T12:09:17;14.40;77.20
26599;DHT22;14240;51.064;16.612;2024-01-30T12:11:44;14.40;77.30
26599;DHT22;14240;51.064;16.612;2024-01-30T12:14:11;14.40;77.20
26599;DHT22;14240;51.064;16.612;2024-01-30T12:16:37;14.30;76.70
26599;DHT22;14240;51.064;16.612;2024-01-30T12:19:03;14.30;77.30
26599;DHT22;14240;51.064;16.612;2024-01-30T12:21:29;14.20;77.60
26599;DHT22;14240;51.064;16.612;2024-01-30T12:23:58;14.20;77.60
26599;DHT22;14240;51.064;16.612;2024-01-30T12:26:24;14.10;77.10
26599;DHT22;14240;51.064;16.612;2024-01-30T12:28:56;14.00;77.40
26599;DHT22;14240;51.064;16.612;2024-01-30T12:31:27;13.90;78.00
26599;DHT22;14240;51.064;16.612;2024-01-30T12:33:53;13.90;78.60
26599;DHT22;14240;51.064;16.612;2024-01-30T12:36:20;13.90;78.90
26599;DHT22;14240;51.064;16.612;2024-01-30T12:38:46;13.80;79.00
26599;DHT22;14240;51.064;16.612;2024-01-30T12:41:12;13.80;79.20
26599;DHT22;14240;51.064;16.612;2024-01-30T12:43:38;13.80;79.40
26599;DHT22;14240;51.064;16.612;2024-01-30T12:46:03;13.70;79.90
26599;DHT22;14240;51.064;16.612;2024-01-30T12:48:29;13.70;80.20
26599;DHT22;14240;51.064;16.612;2024-01-30T12:50:56;13.60;80.50
26599;DHT22;14240;51.064;16.612;2024-01-30T12:53:22;13.60;80.50
26599;DHT22;14240;51.064;16.612;2024-01-30T12:55:47;13.50;80.50
26599;DHT22;14240;51.064;16.612;2024-01-30T12:58:15;13.40;80.50
26599;DHT22;14240;51.064;16.612;2024-01-30T13:00:41;13.30;80.90
26599;DHT22;14240;51.064;16.612;2024-01-30T13:03:09;13.20;81.30
26599;DHT22;14240;51.064;16.612;2024-01-30T13:05:35;13.20;81.60
26599;DHT22;14240;51.064;16.612;2024-01-30T13:08:01;13.10;81.70
26599;DHT22;14240;51.064;16.612;2024-01-30T13:10:26;13.10;81.90
26599;DHT22;14240;51.064;16.612;2024-01-30T13:12:53;13.00;82.20
26599;DHT22;14240;51.064;16.612;2024-01-30T13:15:18;12.80;82.40
26599;DHT22;14240;51.064;16.612;2024-01-30T13:17:44;12.90;82.90
26599;DHT22;14240;51.064;16.612;2024-01-30T13:20:13;12.80;82.70
26599;DHT22;14240;51.064;16.612;2024-01-30T13:22:43;12.80;82.60
26599;DHT22;14240;51.064;16.612;2024-01-30T13:25:09;12.70;82.70
26599;DHT22;14240;51.064;16.612;2024-01-30T13:27:35;12.70;82.80
26599;DHT22;14240;51.064;16.612;2024-01-30T13:30:01;12.60;82.70
26599;DHT22;14240;51.064;16.612;2024-01-30T13:32:26;12.60;82.70
26599;DHT22;14240;51.064;16.612;2024-01-30T13:34:52;12.50;82.90
26599;DHT22;14240;51.064;16.612;2024-01-30T13:37:18;12.50;83.10
26599;DHT22;14240;51.064;16.612;2024-01-30T13:39:44;12.40;83.30
26599;DHT22;14240;51.064;16.612;2024-01-30T13:42:09;12.30;83.60
26599;DHT22;14240;51.064;16.612;2024-01-30T13:44:35;12.20;83.60
26599;DHT22;14240;51.064;16.612;2024-01-30T13:47:01;12.20;83.60
26599;DHT22;14240;51.064;16.612;2024-01-30T13:49:27;12.00;83.60
26599;DHT22;14240;51.064;16.612;2024-01-30T13:51:53;12.00;84.80
26599;DHT22;14240;51.064;16.612;2024-01-30T13:54:19;12.00;84.40
26599;DHT22;14240;51.064;16.612;2024-01-30T13:56:44;11.90;84.70
26599;DHT22;14240;51.064;16.612;2024-01-30T13:59:10;11.80;84.80
26599;DHT22;14240;51.064;16.612;2024-01-30T14:01:36;11.80;84.80
26599;DHT22;14240;51.064;16.612;2024-01-30T14:04:02;11.70;84.80
26599;DHT22;14240;51.064;16.612;2024-01-30T14:06:28;11.70;84.90
26599;DHT22;14240;51.064;16.612;2024-01-30T14:08:54;11.60;85.00
26599;DHT22;14240;51.064;16.612;2024-01-30T14:11:19;11.60;85.40
26599;DHT22;14240;51.064;16.612;2024-01-30T14:13:45;11.50;85.70
26599;DHT22;14240;51.064;16.612;2024-01-30T14:16:11;11.40;86.00
26599;DHT22;14240;51.064;16.612;2024-01-30T14:18:36;11.40;86.30
26599;DHT22;14240;51.064;16.612;2024-01-30T14:21:02;11.40;86.70
26599;DHT22;14240;51.064;16.612;2024-01-30T14:23:29;11.30;86.50
26599;DHT22;14240;51.064;16.612;2024-01-30T14:25:54;11.20;86.50
26599;DHT22;14240;51.064;16.612;2024-01-30T14:28:20;11.20;86.60
26599;DHT22;14240;51.064;16.612;2024-01-30T14:30:46;11.20;86.60
26599;DHT22;14240;51.064;16.612;2024-01-30T14:33:12;11.10;86.70
26599;DHT22;14240;51.064;16.612;2024-01-30T14:35:39;11.00;86.90
26599;DHT22;14240;51.064;16.612;2024-01-30T14:38:04;10.90;87.20
26599;DHT22;14240;51.064;16.612;2024-01-30T14:40:31;10.80;87.50
26599;DHT22;14240;51.064;16.612;2024-01-30T14:42:56;10.70;87.70
26599;DHT22;14240;51.064;16.612;2024-01-30T14:45:22;10.70;88.00
26599;DHT22;14240;51.064;16.612;2024-01-30T14:47:48;10.60;88.20
26599;DHT22;14240;51.064;16.612;2024-01-30T14:50:14;10.50;88.30
26599;DHT22;14240;51.064;16.612;2024-01-30T14:52:42;10.50;88.70
26599;DHT22;14240;51.064;16.612;2024-01-30T14:55:07;10.40;89.00
26599;DHT22;14240;51.064;16.612;2024-01-30T14:57:34;10.30;89.20
26599;DHT22;14240;51.064;16.612;2024-01-30T15:00:00;10.20;89.40
26599;DHT22;14240;51.064;16.612;2024-01-30T15:02:26;10.10;89.70
26599;DHT22;14240;51.064;16.612;2024-01-30T15:04:51;10.10;90.00
26599;DHT22;14240;51.064;16.612;2024-01-30T15:07:18;10.00;90.20
26599;DHT22;14240;51.064;16.612;2024-01-30T15:09:44;9.90;90.20
26599;DHT22;14240;51.064;16.612;2024-01-30T15:12:09;9.80;90.20
26599;DHT22;14240;51.064;16.612;2024-01-30T15:14:35;9.80;90.30
26599;DHT22;14240;51.064;16.612;2024-01-30T15:17:01;9.70;90.30
26599;DHT22;14240;51.064;16.612;2024-01-30T15:19:27;9.60;90.40
26599;DHT22;14240;51.064;16.612;2024-01-30T15:21:52;9.50;90.40